Time;durP1;ratioP1;P1;durP2;ratioP2;P2;SDS_P1;SDS_P2;PMS_P1;PMS_P2;Temp;Humidity;BMP_temperature;BMP_pressure;BME280_temperature;BME280_humidity;BME280_pressure;Samples;Min_cycle;Max_cycle;Signal;HPM_P1;HPM_P2
2022/06/20 00:01:03;;;;;;;5.50;3.72;;;;;;;20.55;55.41;97616.59;5102810;28;20035;-74
2022/06/20 00:03:37;;;;;;;4.15;3.33;;;;;;;20.53;55.55;97618.94;5089883;28;20028;-76
2022/06/20 00:06:03;;;;;;;4.85;3.60;;;;;;;20.54;55.32;97617.78;5097992;28;20031;-76
2022/06/20 00:08:28;;;;;;;5.15;3.50;;;;;;;20.55;55.77;97616.59;5108486;28;20020;-76
2022/06/20 00:10:53;;;;;;;4.85;3.42;;;;;;;20.55;54.76;97616.59;5104314;28;20089;-75
2022/06/20 00:13:31;;;;;;;4.13;3.55;;;;;;;20.56;54.61;97609.84;5107816;28;20088;-74
2022/06/20 00:15:57;;;;;;;5.45;3.58;;;;;;;20.57;54.72;97617.03;5101703;28;20120;-74
2022/06/20 00:18:23;;;;;;;4.32;3.25;;;;;;;20.59;54.45;97603.56;5089668;28;20086;-76
2022/06/20 00:20:49;;;;;;;6.00;3.58;;;;;;;20.66;54.24;97609.25;5092581;28;20051;-74
2022/06/20 00:23:14;;;;;;;5.50;3.75;;;;;;;20.65;54.11;97605.66;5107971;28;20027;-76
2022/06/20 00:25:41;;;;;;;4.80;3.72;;;;;;;20.70;54.57;97610.13;5106879;28;20027;-76
2022/06/20 00:28:07;;;;;;;8.23;4.47;;;;;;;20.70;54.29;97607.34;5094112;28;20063;-75
2022/06/20 00:30:32;;;;;;;6.40;3.38;;;;;;;20.65;54.06;97605.66;5095791;28;20063;-75
2022/06/20 00:32:58;;;;;;;4.22;3.83;;;;;;;20.55;54.94;97599.94;5104934;28;20028;-75
2022/06/20 00:35:23;;;;;;;9.48;4.10;;;;;;;20.52;55.47;97601.44;5089274;28;20028;-75
2022/06/20 00:37:50;;;;;;;4.88;4.00;;;;;;;20.40;55.65;97592.47;5089208;28;20024;-74
2022/06/20 00:40:34;;;;;;;6.78;4.00;;;;;;;20.36;56.42;97591.63;5088559;28;20032;-75
2022/06/20 00:43:00;;;;;;;5.45;3.90;;;;;;;20.23;57.10;97588.97;5108338;28;20028;-77
2022/06/20 00:45:30;;;;;;;6.95;3.80;;;;;;;20.17;56.97;97573.75;5112493;28;20015;-77
2022/06/20 00:48:01;;;;;;;5.32;4.28;;;;;;;20.43;56.18;97577.84;5111367;28;20060;-76
2022/06/20 00:50:30;;;;;;;9.43;4.05;;;;;;;20.39;56.17;97577.81;5105736;28;20054;-75
2022/06/20 00:53:15;;;;;;;4.60;3.72;;;;;;;20.29;56.88;97570.88;5106621;28;20389;-76
2022/06/20 00:55:53;;;;;;;4.50;3.88;;;;;;;20.20;57.15;97573.03;5110625;28;20536;-75
2022/06/20 00:58:51;;;;;;;7.47;4.00;;;;;;;20.17;57.15;97573.75;5106161;28;20129;-75
2022/06/20 01:01:25;;;;;;;6.25;3.80;;;;;;;20.08;57.24;97572.41;5094810;28;20580;-75
2022/06/20 01:03:55;;;;;;;7.53;4.15;;;;;;;20.03;56.79;97565.16;5108108;28;20034;-74
2022/06/20 01:06:30;;;;;;;5.65;3.90;;;;;;;20.01;57.49;97558.38;5100883;28;20081;-76
2022/06/20 01:09:07;;;;;;;5.03;3.85;;;;;;;20.01;57.69;97561.16;5107175;28;20480;-76
2022/06/20 01:11:49;;;;;;;5.38;3.70;;;;;;;20.14;57.20;97568.94;5106684;28;20047;-75
2022/06/20 01:14:24;;;;;;;6.30;3.83;;;;;;;20.14;57.47;97563.38;5107257;28;20044;-76
2022/06/20 01:16:54;;;;;;;5.95;3.85;;;;;;;20.07;58.09;97568.00;5097725;28;20023;-75
2022/06/20 01:19:54;;;;;;;4.22;3.45;;;;;;;20.08;58.27;97575.97;5086030;28;20101;-75
2022/06/20 01:22:38;;;;;;;4.45;3.85;;;;;;;20.11;57.57;97569.66;5103189;28;20028;-73
2022/06/20 01:25:21;;;;;;;5.38;4.05;;;;;;;20.07;58.01;97565.22;5103918;28;20024;-75
2022/06/20 01:27:48;;;;;;;5.20;3.92;;;;;;;20.01;58.17;97561.94;5103375;28;20027;-73
2022/06/20 01:30:13;;;;;;;4.72;3.90;;;;;;;19.99;58.47;97563.47;5107870;28;20481;-74
2022/06/20 01:32:41;;;;;;;5.10;4.20;;;;;;;19.99;58.23;97567.06;5093593;28;20119;-75
2022/06/20 01:35:11;;;;;;;4.55;3.70;;;;;;;19.94;58.89;97553.47;5106785;28;20038;-76
2022/06/20 01:37:41;;;;;;;5.50;4.18;;;;;;;19.94;59.36;97547.91;5105994;28;20118;-75
2022/06/20 01:40:12;;;;;;;5.50;4.53;;;;;;;19.99;59.03;97553.16;5087468;28;20027;-75
2022/06/20 01:42:40;;;;;;;5.30;4.32;;;;;;;19.86;59.19;97551.72;5087825;28;20035;-75
2022/06/20 01:48:09;;;;;;;6.40;4.07;;;;;;;19.86;59.89;97559.25;5108628;28;20105;-75
2022/06/20 01:50:36;;;;;;;4.63;3.80;;;;;;;19.76;60.06;97553.13;5102861;28;20031;-74
2022/06/20 01:53:04;;;;;;;5.63;4.45;;;;;;;19.78;60.04;97538.88;5106786;28;20092;-75
2022/06/20 01:55:31;;;;;;;5.47;3.80;;;;;;;19.77;60.37;97549.16;5098933;28;20119;-74
2022/06/20 01:58:07;;;;;;;7.65;3.70;;;;;;;19.86;60.19;97548.16;5094917;28;20436;-75
2022/06/20 02:00:34;;;;;;;6.10;4.05;;;;;;;19.94;59.86;97542.38;5107715;28;20027;-74
2022/06/20 02:03:07;;;;;;;6.15;4.50;;;;;;;19.96;59.63;97550.31;5102509;28;20040;-74
2022/06/20 02:05:32;;;;;;;5.38;3.85;;;;;;;19.95;59.54;97543.97;5088100;28;20028;-76
2022/06/20 02:08:01;;;;;;;4.57;3.80;;;;;;;19.94;59.80;97550.69;5087626;28;20020;-74
2022/06/20 02:10:36;;;;;;;6.93;4.05;;;;;;;19.98;58.93;97554.34;5089583;28;20058;-76
2022/06/20 02:13:03;;;;;;;4.97;4.00;;;;;;;19.96;59.57;97553.91;5096023;28;20035;-75
2022/06/20 02:15:32;;;;;;;4.60;4.10;;;;;;;19.92;59.22;97549.47;5099589;28;20085;-79
2022/06/20 02:18:01;;;;;;;5.50;4.32;;;;;;;19.88;59.32;97538.28;5094670;28;20495;-81
2022/06/20 02:20:33;;;;;;;5.97;4.05;;;;;;;19.77;60.33;97537.25;5109410;28;20023;-78
2022/06/20 02:22:59;;;;;;;5.10;4.00;;;;;;;19.77;60.49;97531.69;5093187;28;20480;-80
2022/06/20 02:25:31;;;;;;;6.80;4.20;;;;;;;19.71;60.63;97533.97;5109663;28;20146;-80
2022/06/20 02:28:01;;;;;;;5.35;4.40;;;;;;;19.71;61.17;97538.72;5099630;28;20039;-79
2022/06/20 02:30:29;;;;;;;5.43;4.50;;;;;;;19.61;60.84;97537.31;5112909;28;20032;-79
2022/06/20 02:33:18;;;;;;;5.55;3.90;;;;;;;19.52;61.74;97528.41;5098699;28;20036;-80
2022/06/20 02:35:44;;;;;;;4.90;4.00;;;;;;;19.42;61.80;97536.53;5103100;28;20142;-78
2022/06/20 02:38:10;;;;;;;5.15;4.00;;;;;;;19.37;61.73;97534.78;5108745;28;20046;-77
2022/06/20 02:40:41;;;;;;;5.65;4.10;;;;;;;19.37;62.04;97536.75;5102255;28;20047;-79
2022/06/20 02:43:26;;;;;;;5.07;4.00;;;;;;;19.25;62.86;97535.72;5098378;28;20044;-78
2022/06/20 02:45:56;;;;;;;5.97;4.60;;;;;;;19.24;62.55;97528.56;5098278;28;20053;-78
2022/06/20 02:48:25;;;;;;;5.63;4.53;;;;;;;19.22;63.13;97527.31;5111676;28;20030;-79
2022/06/20 02:50:55;;;;;;;5.43;4.38;;;;;;;19.21;63.04;97534.84;5103325;28;20465;-80
2022/06/20 02:53:44;;;;;;;5.88;4.35;;;;;;;19.22;63.15;97525.34;5112858;28;20034;-81
2022/06/20 02:56:16;;;;;;;5.70;4.28;;;;;;;19.22;63.24;97522.59;5113304;28;20027;-80
2022/06/20 02:58:46;;;;;;;8.18;4.65;;;;;;;19.04;63.14;97499.19;5105440;28;20023;-78
2022/06/20 03:01:18;;;;;;;5.53;4.40;;;;;;;19.10;62.98;97510.81;5104187;28;20047;-79
2022/06/20 03:03:48;;;;;;;5.72;4.28;;;;;;;19.12;63.00;97514.81;5110418;27;20016;-78
2022/06/20 03:06:27;;;;;;;5.60;3.80;;;;;;;19.15;62.60;97516.88;5099651;28;20035;-78
2022/06/20 03:08:54;;;;;;;5.63;4.38;;;;;;;19.13;62.14;97515.63;5101823;28;20156;-79
2022/06/20 03:11:20;;;;;;;4.78;4.28;;;;;;;19.14;62.10;97520.81;5107392;28;20036;-77
2022/06/20 03:13:46;;;;;;;4.18;3.50;;;;;;;19.30;61.94;97528.25;5111209;28;20370;-79
2022/06/20 03:16:13;;;;;;;5.93;4.25;;;;;;;19.25;61.13;97521.84;5104454;28;20034;-77
2022/06/20 03:18:42;;;;;;;6.03;3.92;;;;;;;19.39;61.13;97531.66;5101693;28;20086;-78
2022/06/20 03:21:08;;;;;;;5.75;4.30;;;;;;;19.42;61.24;97534.53;5090746;28;20384;-78
2022/06/20 03:23:34;;;;;;;5.55;3.88;;;;;;;19.36;60.31;97526.84;5091585;28;20028;-78
2022/06/20 03:26:03;;;;;;;4.45;3.90;;;;;;;19.51;60.33;97526.00;5091556;28;20066;-77
2022/06/20 03:28:31;;;;;;;4.90;3.97;;;;;;;19.87;59.47;97524.75;5090319;28;20028;-80
2022/06/20 03:30:59;;;;;;;6.35;4.00;;;;;;;20.65;56.66;97538.94;5090612;28;20484;-79
2022/06/20 03:33:26;;;;;;;6.13;4.15;;;;;;;21.27;54.10;97520.88;5103624;28;20042;-79
2022/06/20 03:35:59;;;;;;;4.47;3.60;;;;;;;21.94;51.90;97534.09;5102713;28;20035;-79
2022/06/20 03:38:25;;;;;;;5.07;3.75;;;;;;;22.35;51.03;97542.16;5098426;28;20085;-79
2022/06/20 03:40:50;;;;;;;5.00;3.55;;;;;;;23.12;48.19;97544.03;5096677;28;20032;-79
2022/06/20 03:43:24;;;;;;;4.57;3.67;;;;;;;24.07;46.29;97562.56;5104517;28;20468;-78
2022/06/20 03:45:58;;;;;;;4.47;3.70;;;;;;;24.38;45.09;97545.91;5103868;28;20119;-78
2022/06/20 03:48:32;;;;;;;4.68;3.70;;;;;;;25.32;43.15;97554.00;5090958;28;20027;-79
2022/06/20 03:51:04;;;;;;;4.13;3.72;;;;;;;25.85;41.35;97548.28;5090079;28;20396;-79
2022/06/20 03:54:08;;;;;;;7.03;3.55;;;;;;;26.79;39.60;97570.66;5102283;28;20396;-79
2022/06/20 03:56:45;;;;;;;5.20;3.53;;;;;;;26.82;38.88;97564.25;5103011;28;20047;-79
2022/06/20 03:59:45;;;;;;;4.32;3.28;;;;;;;27.64;37.84;97570.81;5106273;28;20120;-78
2022/06/20 04:02:28;;;;;;;4.28;3.70;;;;;;;28.45;35.66;97563.41;5083029;28;20109;-78
2022/06/20 04:05:00;;;;;;;4.40;3.50;;;;;;;29.20;34.03;97578.00;5088146;28;20024;-77
2022/06/20 04:07:30;;;;;;;4.53;3.47;;;;;;;29.36;33.93;97577.38;5090637;28;20396;-78
2022/06/20 04:13:10;;;;;;;4.72;3.35;;;;;;;28.48;34.32;97571.03;5101965;28;20084;-78
2022/06/20 04:15:46;;;;;;;8.43;3.33;;;;;;;27.32;36.88;97573.88;5110261;28;20027;-79
2022/06/20 04:18:29;;;;;;;5.60;3.28;;;;;;;28.21;36.60;97578.63;5110323;28;20075;-79
2022/06/20 04:20:57;;;;;;;4.03;3.50;;;;;;;26.59;38.70;97562.78;5093096;28;20085;-77
2022/06/20 04:23:48;;;;;;;4.82;3.42;;;;;;;25.51;41.01;97570.41;5086187;28;20040;-78
2022/06/20 04:26:32;;;;;;;4.90;3.80;;;;;;;26.93;39.07;97568.59;5080894;28;20044;-78
2022/06/20 04:29:22;;;;;;;5.55;3.58;;;;;;;26.08;40.60;97557.03;5092083;28;20185;-78
2022/06/20 04:32:03;;;;;;;6.50;3.60;;;;;;;24.72;43.58;97559.56;5085614;28;20039;-76
2022/06/20 04:34:47;;;;;;;9.23;3.63;;;;;;;24.02;44.42;97562.94;5084883;28;20028;-77
2022/06/20 04:37:43;;;;;;;6.00;3.92;;;;;;;23.63;46.13;97562.75;5087765;28;20071;-74
2022/06/20 04:40:20;;;;;;;7.00;3.80;;;;;;;23.15;47.14;97556.44;5088557;28;20043;-73
2022/06/20 04:42:51;;;;;;;5.05;4.00;;;;;;;22.76;48.46;97570.06;5087543;28;20028;-74
2022/06/20 04:45:26;;;;;;;6.18;3.60;;;;;;;22.52;48.97;97559.44;5090006;28;20032;-73
2022/06/20 04:48:00;;;;;;;;;;;;;;;22.43;49.64;97548.59;5087698;28;20031;-74
2022/06/20 04:50:28;;;;;;;5.43;3.83;;;;;;;22.35;49.84;97541.34;5086460;28;20425;-73
2022/06/20 04:53:08;;;;;;;4.65;3.45;;;;;;;22.35;49.67;97536.56;5085943;28;20426;-73
2022/06/20 04:55:38;;;;;;;6.00;4.07;;;;;;;22.43;49.32;97548.59;5086594;28;20880;-74
2022/06/20 04:58:08;;;;;;;5.85;3.65;;;;;;;22.51;49.47;97543.91;5092638;28;20389;-74
2022/06/20 05:00:44;;;;;;;5.55;3.88;;;;;;;22.63;49.22;97536.03;5090771;28;20473;-74
2022/06/20 05:03:20;;;;;;;6.65;3.20;;;;;;;22.79;48.45;97541.41;5090697;28;20030;-71
2022/06/20 05:05:51;;;;;;;5.70;3.85;;;;;;;22.84;48.87;97535.44;5088893;28;20028;-73
2022/06/20 05:08:24;;;;;;;4.55;3.78;;;;;;;22.82;49.40;97535.03;5091294;28;20032;-72
2022/06/20 05:11:10;;;;;;;6.45;3.92;;;;;;;23.05;48.40;97540.41;5092251;28;20051;-71
2022/06/20 05:13:41;;;;;;;4.65;4.10;;;;;;;23.36;47.89;97532.25;5094304;28;20032;-71
2022/06/20 05:16:16;;;;;;;8.13;4.15;;;;;;;23.42;47.60;97535.50;5091201;28;20024;-72
2022/06/20 05:18:43;;;;;;;;;;;;;;;23.42;47.00;97533.53;5091573;28;20055;-73
2022/06/20 05:21:17;;;;;;;4.63;3.67;;;;;;;23.61;47.19;97540.00;5092626;28;19911;-75
2022/06/20 05:23:46;;;;;;;5.03;4.27;;;;;;;23.75;46.90;97531.69;5095357;28;20032;-73
2022/06/20 05:26:26;;;;;;;5.35;3.50;;;;;;;23.77;47.06;97543.28;5095436;28;20034;-73
2022/06/20 05:28:54;;;;;;;5.38;4.03;;;;;;;23.79;45.75;97536.09;5091830;28;20066;-71
2022/06/20 05:31:30;;;;;;;5.25;3.67;;;;;;;23.96;45.97;97534.59;5090772;28;20028;-71
2022/06/20 05:34:01;;;;;;;4.88;3.55;;;;;;;24.02;45.34;97538.59;5090820;28;20028;-71
2022/06/20 05:36:40;;;;;;;5.35;4.03;;;;;;;24.08;45.28;97531.44;5090375;28;20134;-71
2022/06/20 05:39:20;;;;;;;5.55;3.78;;;;;;;23.99;45.13;97537.38;5090688;28;20028;-71
2022/06/20 05:41:46;;;;;;;8.05;4.00;;;;;;;24.03;45.19;97531.81;5090174;28;20873;-71
2022/06/20 05:44:12;;;;;;;4.53;3.65;;;;;;;24.18;44.66;97527.09;5089523;28;20183;-71
2022/06/20 05:46:44;;;;;;;5.97;4.00;;;;;;;24.42;44.57;97534.75;5089017;28;20065;-73
2022/06/20 05:49:16;;;;;;;5.32;3.55;;;;;;;24.59;43.72;97535.97;5089100;28;20032;-74
2022/06/20 05:51:44;;;;;;;5.43;3.53;;;;;;;24.74;44.19;97530.00;5090352;28;20025;-73
2022/06/20 05:54:23;;;;;;;5.13;3.33;;;;;;;24.92;43.39;97524.44;5088791;28;20093;-74
2022/06/20 05:56:57;;;;;;;4.68;3.47;;;;;;;24.92;43.00;97524.44;5088959;28;20116;-73
2022/06/20 05:59:25;;;;;;;4.53;3.38;;;;;;;24.94;43.41;97527.63;5090470;28;20039;-74
2022/06/20 06:01:54;;;;;;;5.97;3.95;;;;;;;25.10;42.65;97525.22;5090270;28;20030;-74
2022/06/20 06:04:48;;;;;;;4.85;3.78;;;;;;;25.08;42.65;97530.44;5089228;28;20028;-71
2022/06/20 06:07:22;;;;;;;5.75;3.78;;;;;;;25.26;43.00;97525.59;5034911;28;20494;-71
2022/06/20 06:10:05;;;;;;;4.45;3.53;;;;;;;25.36;41.64;97527.59;5089820;28;20035;-70
2022/06/20 06:12:40;;;;;;;4.32;3.38;;;;;;;25.68;41.97;97527.53;5089945;28;20044;-72
2022/06/20 06:15:33;;;;;;;5.68;3.45;;;;;;;26.16;40.47;97524.94;5089813;28;20122;-71
2022/06/20 06:18:02;;;;;;;4.00;3.17;;;;;;;26.71;39.69;97522.22;5088519;28;20040;-71
2022/06/20 06:20:30;;;;;;;3.92;3.10;;;;;;;27.15;38.17;97527.09;5088150;28;20072;-71
2022/06/20 06:22:59;;;;;;;3.80;3.17;;;;;;;27.19;38.04;97533.47;5089072;28;20091;-72
2022/06/20 06:25:29;;;;;;;6.22;3.35;;;;;;;27.20;38.10;97531.47;5088152;28;20481;-71
2022/06/20 06:27:59;;;;;;;5.78;3.35;;;;;;;27.11;37.86;97535.56;5090218;28;20051;-71
2022/06/20 06:30:31;;;;;;;3.70;2.90;;;;;;;28.18;35.95;97540.88;5090485;28;20508;-73
2022/06/20 06:33:52;;;;;;;4.05;3.00;;;;;;;28.82;34.88;97529.50;5090090;28;20028;-70
2022/06/20 06:36:38;;;;;;;5.95;3.28;;;;;;;28.59;34.64;97521.81;5079227;28;20053;-71
2022/06/20 06:39:10;;;;;;;4.70;3.15;;;;;;;28.26;34.01;97531.13;5085284;28;20103;-71
2022/06/20 06:41:41;;;;;;;5.30;3.17;;;;;;;27.49;35.37;97530.81;5086131;28;20032;-70
2022/06/20 06:44:16;;;;;;;4.72;3.00;;;;;;;27.35;35.41;97519.66;5082921;28;20067;-70
2022/06/20 06:46:47;;;;;;;4.05;3.08;;;;;;;27.44;35.07;97520.00;5069742;28;20093;-70
2022/06/20 06:49:36;;;;;;;3.85;2.60;;;;;;;27.52;34.72;97520.75;5069615;28;20041;-72
2022/06/20 06:52:21;;;;;;;4.20;2.90;;;;;;;27.64;35.24;97511.78;5068336;28;20553;-71
2022/06/20 06:55:22;;;;;;;3.67;2.90;;;;;;;27.58;34.89;97508.63;5069514;28;20028;-71
2022/06/20 06:57:56;;;;;;;6.00;2.88;;;;;;;27.58;34.84;97507.81;5048419;28;20051;-70
2022/06/20 07:00:32;;;;;;;3.72;2.42;;;;;;;27.51;34.47;97514.31;5073652;28;20470;-70
2022/06/20 07:03:10;;;;;;;4.38;2.70;;;;;;;27.52;34.74;97509.50;5083761;28;20031;-71
2022/06/20 07:05:40;;;;;;;6.25;3.85;;;;;;;27.48;34.66;97512.34;5093237;28;20111;-70
2022/06/20 07:08:12;;;;;;;3.63;2.65;;;;;;;27.53;34.63;97503.47;5093031;28;20069;-71
2022/06/20 07:10:43;;;;;;;3.90;2.70;;;;;;;27.81;34.07;97507.16;5088996;28;20077;-71
2022/06/20 07:13:31;;;;;;;5.43;2.70;;;;;;;27.68;34.13;97506.91;5093714;28;20075;-72
2022/06/20 07:15:59;;;;;;;3.25;2.80;;;;;;;27.98;33.29;97503.31;5093651;28;20024;-71
2022/06/20 07:18:47;;;;;;;3.10;2.50;;;;;;;27.88;33.27;97498.66;5094004;28;20105;-71
2022/06/20 07:21:17;;;;;;;4.78;2.60;;;;;;;27.98;32.66;97498.50;5090772;28;20024;-71
2022/06/20 07:23:45;;;;;;;5.75;2.72;;;;;;;28.54;31.40;97488.47;5091470;28;20047;-71
2022/06/20 07:26:13;;;;;;;3.45;2.50;;;;;;;28.60;30.85;97495.22;5093504;28;20035;-71
2022/06/20 07:28:48;;;;;;;4.20;2.60;;;;;;;28.94;30.38;97488.69;5098463;28;20032;-71
2022/06/20 07:31:17;;;;;;;;;;;;;;;28.93;30.39;97489.91;5089012;28;20036;-71
2022/06/20 07:33:53;;;;;;;3.50;2.50;;;;;;;29.18;29.30;97493.09;5091967;28;19912;-71
2022/06/20 07:36:24;;;;;;;3.10;2.40;;;;;;;29.28;29.98;97494.97;5089120;28;20028;-71
2022/06/20 07:39:18;;;;;;;3.90;2.70;;;;;;;29.19;28.93;97486.25;5089236;28;20031;-70
2022/06/20 07:41:49;;;;;;;3.55;2.65;;;;;;;29.37;28.57;97497.22;5090843;28;20480;-70
2022/06/20 07:44:23;;;;;;;3.63;2.30;;;;;;;29.42;28.28;97489.06;5086621;28;20054;-70
2022/06/20 07:47:08;;;;;;;3.70;2.35;;;;;;;29.59;28.11;97492.78;5089427;28;20045;-72
2022/06/20 07:50:00;;;;;;;3.20;2.40;;;;;;;29.49;28.34;97486.09;5089393;28;20035;-71
2022/06/20 07:52:34;;;;;;;7.05;2.40;;;;;;;30.46;26.83;97477.25;5084542;28;20048;-70
2022/06/20 07:55:07;;;;;;;3.10;2.40;;;;;;;31.14;25.65;97482.84;5091766;28;20034;-70
2022/06/20 07:57:37;;;;;;;4.60;2.45;;;;;;;31.93;24.55;97482.34;5088951;28;20042;-72
2022/06/20 08:00:17;;;;;;;4.93;2.78;;;;;;;34.17;22.60;97491.53;5091345;28;20468;-72
2022/06/20 08:02:54;;;;;;;6.80;2.63;;;;;;;33.84;22.65;97493.94;5090928;28;20028;-70
2022/06/20 08:05:35;;;;;;;4.85;2.33;;;;;;;33.63;22.61;97489.84;5084256;28;20075;-69
2022/06/20 08:08:09;;;;;;;4.95;2.83;;;;;;;33.88;22.67;97500.28;5085722;28;20035;-71
2022/06/20 08:11:04;;;;;;;3.88;2.60;;;;;;;33.66;22.70;97497.44;5088582;28;20051;-71
2022/06/20 08:13:36;;;;;;;2.92;2.28;;;;;;;32.42;23.33;97489.38;5086710;28;20048;-71
2022/06/20 08:16:14;;;;;;;3.85;2.22;;;;;;;32.01;24.25;97489.41;5089449;28;20119;-71
2022/06/20 08:18:40;;;;;;;3.25;2.33;;;;;;;31.43;24.96;97495.03;5093194;28;20150;-71
2022/06/20 08:21:19;;;;;;;3.80;2.85;;;;;;;31.35;24.73;97490.00;5093160;28;20055;-71
2022/06/20 08:23:48;;;;;;;3.53;2.47;;;;;;;31.19;24.91;97490.81;5090784;28;20032;-71
2022/06/20 08:26:25;;;;;;;2.97;2.17;;;;;;;31.31;24.94;97478.78;5092606;28;20024;-71
2022/06/20 08:28:56;;;;;;;3.00;2.58;;;;;;;31.29;25.33;97490.53;5090289;28;20115;-71
2022/06/20 08:31:28;;;;;;;7.28;3.08;;;;;;;31.21;24.93;97480.66;5091893;28;20035;-71
2022/06/20 08:34:00;;;;;;;3.90;2.75;;;;;;;31.16;25.47;97486.84;5091304;28;20023;-71
2022/06/20 08:36:37;;;;;;;4.22;3.05;;;;;;;31.14;25.03;97475.19;5098236;27;20020;-71
2022/06/20 08:39:21;;;;;;;3.40;2.60;;;;;;;31.25;24.90;97483.41;5090091;28;20023;-70
2022/06/20 08:42:13;;;;;;;4.70;2.40;;;;;;;31.22;25.27;97472.97;5086170;28;20114;-70
2022/06/20 08:44:56;;;;;;;3.67;2.60;;;;;;;31.29;25.12;97478.44;5088010;28;20028;-70
2022/06/20 08:47:43;;;;;;;3.55;2.67;;;;;;;31.09;25.74;97469.28;5087185;28;20055;-71
2022/06/20 08:50:28;;;;;;;3.80;2.72;;;;;;;31.58;25.56;97479.28;5087094;28;20024;-72
2022/06/20 08:53:17;;;;;;;3.92;2.78;;;;;;;31.60;25.27;97473.97;5091355;28;20086;-72
2022/06/20 08:56:18;;;;;;;3.80;3.10;;;;;;;31.74;25.16;97455.78;5070136;28;20161;-71
2022/06/20 08:59:14;;;;;;;4.47;2.70;;;;;;;31.98;25.26;97462.78;5089039;28;20443;-70
2022/06/20 09:01:53;;;;;;;3.58;2.53;;;;;;;32.19;25.11;97462.16;5090467;28;20032;-70
2022/06/20 09:04:41;;;;;;;4.45;2.55;;;;;;;32.26;25.35;97466.81;5091160;28;20027;-71
2022/06/20 09:07:27;;;;;;;4.00;2.60;;;;;;;32.41;25.02;97465.13;5107457;28;20438;-71
2022/06/20 09:10:02;;;;;;;3.35;2.60;;;;;;;31.49;26.01;97459.31;5090723;28;20521;-71
2022/06/20 09:12:31;;;;;;;4.07;2.90;;;;;;;31.98;25.78;97454.28;5080281;28;20040;-71
2022/06/20 09:15:11;;;;;;;3.97;2.92;;;;;;;32.22;24.91;97454.78;5084084;28;20473;-74
2022/06/20 09:17:54;;;;;;;5.75;3.00;;;;;;;31.81;25.86;97459.22;5098940;28;20032;-72
2022/06/20 09:20:35;;;;;;;3.00;2.50;;;;;;;30.94;26.41;97457.53;5095454;28;20531;-71
2022/06/20 09:23:22;;;;;;;4.50;3.00;;;;;;;31.14;26.88;97446.09;5087704;28;20549;-71
2022/06/20 09:26:08;;;;;;;4.05;3.00;;;;;;;31.18;26.96;97446.81;5098735;28;20441;-71
2022/06/20 09:28:55;;;;;;;3.72;2.75;;;;;;;31.48;26.95;97451.28;5094981;28;20032;-73
2022/06/20 09:31:24;;;;;;;6.60;3.17;;;;;;;31.76;26.95;97453.31;5077908;28;20473;-71
2022/06/20 09:33:55;;;;;;;6.63;2.85;;;;;;;31.93;26.58;97445.53;5100957;28;20079;-71
2022/06/20 09:36:56;;;;;;;6.78;3.13;;;;;;;31.48;26.92;97439.97;5103362;28;20027;-71
2022/06/20 09:39:40;;;;;;;4.38;2.85;;;;;;;31.59;26.97;97455.41;5078263;28;20057;-71
2022/06/20 09:42:37;;;;;;;3.72;2.78;;;;;;;31.75;27.12;97444.03;5105796;28;20058;-72
2022/06/20 09:45:07;;;;;;;4.68;3.35;;;;;;;31.75;27.11;97441.22;5086252;28;20036;-70
2022/06/20 09:47:44;;;;;;;4.28;3.33;;;;;;;31.99;26.66;97435.25;5102143;28;20027;-72
2022/06/20 09:50:24;;;;;;;4.35;3.65;;;;;;;32.17;26.86;97446.88;5100820;28;20039;-71
2022/06/20 09:53:14;;;;;;;5.30;3.17;;;;;;;32.27;26.75;97446.53;5091259;28;20127;-72
2022/06/20 09:55:56;;;;;;;4.30;3.20;;;;;;;32.04;26.89;97448.88;5102319;28;20045;-71
2022/06/20 09:58:37;;;;;;;4.00;3.03;;;;;;;31.93;27.07;97439.88;5108878;28;20104;-72
2022/06/20 10:01:11;;;;;;;5.28;3.72;;;;;;;31.74;27.55;97448.09;5099427;28;20492;-77
2022/06/20 10:03:47;;;;;;;3.65;3.13;;;;;;;31.29;28.26;97436.03;5102986;28;20032;-70
2022/06/20 10:06:28;;;;;;;5.38;3.33;;;;;;;31.61;28.03;97437.97;5101767;28;20076;-69
2022/06/20 10:08:53;;;;;;;4.90;3.33;;;;;;;31.84;27.77;97435.69;5091256;28;20469;-70
2022/06/20 10:11:29;;;;;;;4.45;2.90;;;;;;;32.11;27.11;97431.69;5093466;28;20044;-70
2022/06/20 10:14:20;;;;;;;3.75;3.28;;;;;;;32.24;27.39;97436.09;5099489;28;20040;-70
2022/06/20 10:17:17;;;;;;;4.80;3.10;;;;;;;32.31;26.87;97424.56;5059591;28;20051;-70
2022/06/20 10:20:06;;;;;;;4.22;3.08;;;;;;;31.65;27.88;97430.19;5082990;28;20066;-69
2022/06/20 10:22:38;;;;;;;7.38;3.67;;;;;;;32.82;26.63;97405.50;5093670;28;20489;-72
2022/06/20 10:25:16;;;;;;;4.75;3.38;;;;;;;34.09;24.97;97424.84;5105456;28;20028;-73
2022/06/20 10:28:00;;;;;;;6.45;3.47;;;;;;;34.07;24.77;97421.69;5096754;28;20028;-71
2022/06/20 10:30:40;;;;;;;4.18;2.90;;;;;;;33.65;25.28;97419.22;5094445;28;20043;-71
2022/06/20 10:33:28;;;;;;;5.68;3.22;;;;;;;33.20;26.10;97413.94;5108328;28;20047;-71
2022/06/20 10:36:00;;;;;;;8.60;3.42;;;;;;;33.23;26.00;97415.06;5101738;28;20047;-70
2022/06/20 10:38:40;;;;;;;8.45;3.03;;;;;;;32.28;26.95;97413.34;5099028;28;20035;-72
2022/06/20 10:41:31;;;;;;;4.28;3.38;;;;;;;32.11;27.63;97409.03;5109406;28;20050;-71
2022/06/20 10:44:19;;;;;;;7.47;3.55;;;;;;;31.47;28.06;97410.88;5102074;28;20020;-71
2022/06/20 10:46:51;;;;;;;6.57;3.55;;;;;;;31.66;28.47;97421.25;5095965;28;20389;-70
2022/06/20 10:49:46;;;;;;;4.60;3.00;;;;;;;31.41;28.51;97412.66;5079511;28;20050;-72
2022/06/20 10:52:37;;;;;;;7.40;3.70;;;;;;;31.43;28.56;97421.50;5100935;28;20475;-71
2022/06/20 10:55:08;;;;;;;11.43;3.30;;;;;;;31.27;28.76;97407.38;5109153;28;20050;-70
2022/06/20 10:57:43;;;;;;;3.58;3.00;;;;;;;31.61;28.74;97402.00;5096175;28;20027;-71
2022/06/20 11:00:14;;;;;;;3.75;2.97;;;;;;;31.36;28.95;97387.75;5088401;28;20077;-71
2022/06/20 11:02:48;;;;;;;6.53;3.70;;;;;;;31.51;29.18;97388.19;5091339;28;20122;-72
2022/06/20 11:05:32;;;;;;;4.38;3.40;;;;;;;31.76;28.84;97391.84;5091659;28;20146;-73
2022/06/20 11:08:01;;;;;;;4.60;3.47;;;;;;;31.40;29.47;97394.09;5090810;28;20043;-72
2022/06/20 11:10:35;;;;;;;5.05;3.33;;;;;;;31.66;29.28;97390.16;5093932;28;20114;-71
2022/06/20 11:13:14;;;;;;;5.10;3.50;;;;;;;31.86;29.07;97377.84;5096141;28;20028;-70
2022/06/20 11:15:54;;;;;;;4.57;3.20;;;;;;;31.82;29.22;97378.75;5092340;28;20127;-71
2022/06/20 11:18:29;;;;;;;5.68;3.40;;;;;;;31.56;29.30;97365.78;5089418;28;20059;-72
2022/06/20 11:21:17;;;;;;;5.43;3.78;;;;;;;31.74;29.29;97374.53;5092609;28;20441;-71
2022/06/20 11:23:56;;;;;;;5.18;3.58;;;;;;;31.12;29.76;97377.94;5090418;28;20032;-71
2022/06/20 11:26:51;;;;;;;9.23;3.28;;;;;;;31.12;30.27;97372.28;5092916;28;20028;-72
2022/06/20 11:29:28;;;;;;;7.05;3.58;;;;;;;31.10;30.85;97380.41;5096745;28;20020;-73
2022/06/20 11:32:03;;;;;;;6.97;3.70;;;;;;;30.97;31.18;97357.75;5105859;28;20038;-71
2022/06/20 11:34:37;;;;;;;6.10;3.65;;;;;;;31.14;31.05;97358.47;5092889;28;20036;-71
2022/06/20 11:37:12;;;;;;;7.63;3.78;;;;;;;31.51;30.86;97359.91;5084816;28;20028;-72
2022/06/20 11:39:43;;;;;;;7.60;3.60;;;;;;;31.79;30.07;97365.50;5088327;28;20036;-73
2022/06/20 11:42:15;;;;;;;5.55;3.20;;;;;;;31.78;29.78;97363.91;5089534;28;20550;-73
2022/06/20 11:44:49;;;;;;;5.93;3.70;;;;;;;31.54;30.51;97362.63;5088369;28;20039;-71
2022/06/20 11:47:31;;;;;;;5.55;3.08;;;;;;;31.62;30.05;97355.50;5097257;28;20035;-72
2022/06/20 11:50:20;;;;;;;5.38;3.95;;;;;;;31.51;30.11;97349.38;5095043;28;20032;-70
2022/06/20 11:53:14;;;;;;;5.53;3.50;;;;;;;31.59;30.23;97350.75;5079508;28;20092;-71
2022/06/20 11:55:51;;;;;;;8.10;3.88;;;;;;;31.75;30.46;97350.66;5095315;28;20035;-74
2022/06/20 11:58:21;;;;;;;8.32;3.35;;;;;;;31.35;30.62;97335.28;5096450;28;20050;-71
2022/06/20 12:01:00;;;;;;;5.28;3.40;;;;;;;31.50;30.75;97347.78;5094690;28;20476;-71
2022/06/20 12:03:31;;;;;;;5.85;3.40;;;;;;;31.70;30.77;97364.59;5097296;28;20330;-72
2022/06/20 12:06:05;;;;;;;3.65;3.25;;;;;;;31.17;30.87;97364.03;5097518;28;20392;-71
2022/06/20 12:08:58;;;;;;;6.88;3.83;;;;;;;31.09;31.06;97359.03;5090043;28;20513;-70
2022/06/20 12:11:29;;;;;;;6.85;3.50;;;;;;;31.09;31.55;97353.38;5096772;28;20388;-69
2022/06/20 12:14:26;;;;;;;7.05;4.43;;;;;;;31.34;31.76;97350.66;5089451;28;20031;-71
2022/06/20 12:17:30;;;;;;;5.00;3.58;;;;;;;31.32;31.68;97347.47;5094611;28;20024;-72
2022/06/20 12:23:21;;;;;;;5.43;3.42;;;;;;;31.39;31.05;97330.28;5096633;28;20476;-72
2022/06/20 12:26:01;;;;;;;3.95;3.13;;;;;;;31.54;31.54;97344.84;5094150;28;20034;-72